createdAt,value
2017-02-16T00:00:08.053Z,3.32
2017-02-16T00:01:07.869Z,3.24
2017-02-16T00:02:07.398Z,3.29
2017-02-16T00:03:08.035Z,3.32
2017-02-16T00:04:07.607Z,3.45
2017-02-16T00:05:07.065Z,3.37
2017-02-16T00:06:07.583Z,3.37
2017-02-16T00:07:07.078Z,3.46
2017-02-16T00:08:07.704Z,3.41
2017-02-16T00:09:07.264Z,3.35
2017-02-16T00:10:08.157Z,3.23
2017-02-16T00:11:07.710Z,3.34
2017-02-16T00:12:07.343Z,3.25
2017-02-16T00:13:07.926Z,3.32
2017-02-16T00:14:07.466Z,3.36
2017-02-16T00:15:08.063Z,3.37
2017-02-16T00:16:07.710Z,3.45
2017-02-16T00:17:07.198Z,3.44
2017-02-16T00:18:08.023Z,3.29
2017-02-16T00:19:07.632Z,3.39
2017-02-16T00:20:07.130Z,3.40
2017-02-16T00:21:07.849Z,3.40
2017-02-16T00:22:07.389Z,3.36
2017-02-16T00:23:07.932Z,3.35
2017-02-16T00:24:07.455Z,3.35
2017-02-16T00:25:08.025Z,3.35
2017-02-16T00:26:07.578Z,3.28
2017-02-16T00:27:07.065Z,3.15
2017-02-16T00:28:07.755Z,3.24
2017-02-16T00:29:07.341Z,3.16
2017-02-16T00:30:07.967Z,3.18
2017-02-16T00:31:07.792Z,3.19
2017-02-16T00:32:07.318Z,3.19
2017-02-16T00:33:07.893Z,3.16
2017-02-16T00:34:07.401Z,3.08
2017-02-16T00:35:08.008Z,3.05
2017-02-16T00:36:07.563Z,3.11
2017-02-16T00:37:08.151Z,3.20
2017-02-16T00:38:07.706Z,3.12
2017-02-16T00:39:07.223Z,3.11
2017-02-16T00:40:07.884Z,3.12
2017-02-16T00:41:07.467Z,3.19
2017-02-16T00:42:08.035Z,3.04
2017-02-16T00:43:07.584Z,3.08
2017-02-16T00:44:07.446Z,3.15
2017-02-16T00:45:07.956Z,3.15
2017-02-16T00:46:07.618Z,3.10
2017-02-16T00:47:07.102Z,3.14
2017-02-16T00:48:07.614Z,3.09
2017-02-16T00:49:07.262Z,2.92
2017-02-16T00:50:07.793Z,3.00
2017-02-16T00:51:07.316Z,3.18
2017-02-16T00:52:07.822Z,3.10
2017-02-16T00:53:07.455Z,2.98
2017-02-16T00:54:08.115Z,2.99
2017-02-16T00:55:07.688Z,2.97
2017-02-16T00:56:07.186Z,3.04
2017-02-16T00:57:07.751Z,3.08
2017-02-16T00:59:07.406Z,3.17
2017-02-16T01:00:08.257Z,3.07
2017-02-16T01:01:08.755Z,3.06
2017-02-16T01:02:07.216Z,3.03
2017-02-16T01:03:08.669Z,3.08
2017-02-16T01:04:07.272Z,3.02
2017-02-16T01:05:08.135Z,3.02
2017-02-16T01:06:08.755Z,2.99
2017-02-16T01:07:08.757Z,3.11
2017-02-16T01:08:07.822Z,3.17
2017-02-16T01:09:07.652Z,2.99
2017-02-16T01:10:08.144Z,2.97
2017-02-16T01:11:07.688Z,2.94
2017-02-16T01:12:07.187Z,2.98
2017-02-16T01:13:08.630Z,2.93
2017-02-16T01:14:08.113Z,3.09
2017-02-16T01:15:08.026Z,3.12
2017-02-16T01:16:07.770Z,3.04
2017-02-16T01:17:07.538Z,3.06
2017-02-16T01:18:09.081Z,3.06
2017-02-16T01:19:07.259Z,3.05
2017-02-16T01:20:08.143Z,3.01
2017-02-16T01:21:07.690Z,2.98
2017-02-16T01:22:07.368Z,2.91
2017-02-16T01:23:07.999Z,2.95
2017-02-16T01:24:08.005Z,2.99
2017-02-16T01:25:07.770Z,2.96
2017-02-16T01:26:07.341Z,2.98
2017-02-16T01:27:08.028Z,2.99
2017-02-16T01:28:07.582Z,3.12
2017-02-16T01:29:07.258Z,3.00
2017-02-16T01:30:07.766Z,3.10
2017-02-16T01:31:07.286Z,2.97
2017-02-16T01:32:07.857Z,2.98
2017-02-16T01:33:07.353Z,3.02
2017-02-16T01:34:07.936Z,2.95
2017-02-16T01:35:07.505Z,2.93
2017-02-16T01:36:08.151Z,2.97
2017-02-16T01:37:08.183Z,3.09
2017-02-16T01:38:07.679Z,2.96
2017-02-16T01:39:07.245Z,2.88
2017-02-16T01:40:07.764Z,2.99
2017-02-16T01:41:07.281Z,2.98
2017-02-16T01:42:07.777Z,2.93
2017-02-16T01:43:07.334Z,2.97
2017-02-16T01:44:07.820Z,2.90
2017-02-16T01:45:07.476Z,2.89
2017-02-16T01:46:08.115Z,2.92
2017-02-16T01:47:07.626Z,2.92
2017-02-16T01:48:07.189Z,2.83
2017-02-16T01:49:07.875Z,2.95
2017-02-16T01:50:07.312Z,2.96
2017-02-16T01:51:08.297Z,2.92
2017-02-16T01:52:07.891Z,2.85
2017-02-16T01:53:07.379Z,2.97
2017-02-16T01:54:07.968Z,2.93
2017-02-16T01:55:07.501Z,2.98
2017-02-16T01:56:08.024Z,2.95
2017-02-16T01:57:07.781Z,3.03
2017-02-16T01:58:07.306Z,2.91
2017-02-16T01:59:08.266Z,2.82
2017-02-16T02:00:07.875Z,2.90
2017-02-16T02:01:07.385Z,2.86
2017-02-16T02:02:07.970Z,2.88
2017-02-16T02:03:07.657Z,2.98
2017-02-16T02:04:07.133Z,3.05
2017-02-16T02:05:07.905Z,3.09
2017-02-16T02:06:07.482Z,2.92
2017-02-16T02:07:08.115Z,2.81
2017-02-16T02:08:08.003Z,2.93
2017-02-16T02:09:07.560Z,2.95
2017-02-16T02:10:08.479Z,2.89
2017-02-16T02:11:08.207Z,2.86
2017-02-16T02:12:07.832Z,2.92
2017-02-16T02:13:07.336Z,3.01
2017-02-16T02:14:07.936Z,2.88
2017-02-16T02:15:07.457Z,2.96
2017-02-16T02:16:07.977Z,2.94
2017-02-16T02:17:07.667Z,2.99
2017-02-16T02:18:07.213Z,2.84
2017-02-16T02:19:08.003Z,2.81
2017-02-16T02:20:08.019Z,2.91
2017-02-16T02:21:07.643Z,2.99
2017-02-16T02:22:07.423Z,2.93
2017-02-16T02:23:08.334Z,2.92
2017-02-16T02:24:07.809Z,2.76
2017-02-16T02:25:07.296Z,2.94
2017-02-16T02:26:07.829Z,2.84
2017-02-16T02:27:07.403Z,2.78
2017-02-16T02:28:07.910Z,2.92
2017-02-16T02:29:07.686Z,2.94
2017-02-16T02:30:07.287Z,2.88
2017-02-16T02:31:08.112Z,2.93
2017-02-16T02:32:07.594Z,2.89
2017-02-16T02:33:07.306Z,2.89
2017-02-16T02:34:07.885Z,2.80
2017-02-16T02:35:07.735Z,2.72
2017-02-16T02:36:07.409Z,2.85
2017-02-16T02:37:07.903Z,2.83
2017-02-16T02:38:07.941Z,2.82
2017-02-16T02:39:07.497Z,2.96
2017-02-16T02:40:08.068Z,2.86
2017-02-16T02:41:07.617Z,2.91
2017-02-16T02:42:07.185Z,2.90
2017-02-16T02:43:07.718Z,2.82
2017-02-16T02:44:07.315Z,2.94
2017-02-16T02:45:07.829Z,2.80
2017-02-16T02:46:07.393Z,2.87
2017-02-16T02:47:07.946Z,2.92
2017-02-16T02:48:07.398Z,2.91
2017-02-16T02:49:08.054Z,2.94
2017-02-16T02:50:07.545Z,2.88
2017-02-16T02:51:08.143Z,2.96
2017-02-16T02:52:08.025Z,2.89
2017-02-16T02:53:07.589Z,2.83
2017-02-16T02:54:07.068Z,2.94
2017-02-16T02:55:07.617Z,2.94
2017-02-16T02:56:07.185Z,2.86
2017-02-16T02:57:07.716Z,2.79
2017-02-16T02:58:07.256Z,2.91
2017-02-16T02:59:07.925Z,2.88
2017-02-16T03:00:07.478Z,2.93
2017-02-16T03:01:08.283Z,2.98
2017-02-16T03:02:07.847Z,2.90
2017-02-16T03:03:07.354Z,2.76
2017-02-16T03:04:08.115Z,2.88
2017-02-16T03:05:07.664Z,2.84
2017-02-16T03:06:07.205Z,2.87
2017-02-16T03:07:08.117Z,2.76
2017-02-16T03:08:07.582Z,2.75
2017-02-16T03:09:07.129Z,2.81
2017-02-16T03:10:07.591Z,2.65
2017-02-16T03:11:07.589Z,2.72
2017-02-16T03:12:07.322Z,2.84
2017-02-16T03:13:07.945Z,2.85
2017-02-16T03:14:07.765Z,2.87
2017-02-16T03:15:07.523Z,2.88
2017-02-16T03:16:08.292Z,2.97
2017-02-16T03:17:08.017Z,2.98
2017-02-16T03:18:07.204Z,2.92
2017-02-16T03:19:07.706Z,2.92
2017-02-16T03:20:07.247Z,2.88
2017-02-16T03:21:07.771Z,3.10
2017-02-16T03:22:07.274Z,2.91
2017-02-16T03:23:07.992Z,2.95
2017-02-16T03:24:07.588Z,2.91
2017-02-16T03:25:07.129Z,3.00
2017-02-16T03:26:07.673Z,2.95
2017-02-16T03:27:07.572Z,3.04
2017-02-16T03:28:07.119Z,3.00
2017-02-16T03:29:07.770Z,2.93
2017-02-16T03:30:07.308Z,2.97
2017-02-16T03:31:07.810Z,3.01
2017-02-16T03:32:07.423Z,2.99
2017-02-16T03:33:08.863Z,3.02
2017-02-16T03:34:07.732Z,2.93
2017-02-16T03:35:08.419Z,2.85
2017-02-16T03:36:08.901Z,3.00
2017-02-16T03:37:08.378Z,3.01
2017-02-16T03:38:08.837Z,3.00
2017-02-16T03:39:07.397Z,3.01
2017-02-16T03:40:08.869Z,3.03
2017-02-16T03:41:08.339Z,2.99
2017-02-16T03:42:08.845Z,2.96
2017-02-16T03:43:07.341Z,2.97
2017-02-16T03:44:08.160Z,2.97
2017-02-16T03:45:07.709Z,3.00
2017-02-16T03:46:08.162Z,2.86
2017-02-16T03:47:07.672Z,2.90
2017-02-16T03:48:07.180Z,2.88
2017-02-16T03:49:07.680Z,2.96
2017-02-16T03:50:07.188Z,2.90
2017-02-16T03:51:08.648Z,2.78
2017-02-16T03:52:08.136Z,2.90
2017-02-16T03:53:08.619Z,2.80
2017-02-16T03:54:07.479Z,2.87
2017-02-16T03:55:08.932Z,2.80
2017-02-16T03:56:07.776Z,2.80
2017-02-16T03:57:07.390Z,2.77
2017-02-16T03:58:07.971Z,2.84
2017-02-16T03:59:07.581Z,2.94
2017-02-16T04:00:07.080Z,2.81
2017-02-16T04:01:07.513Z,2.76
2017-02-16T04:02:07.678Z,2.81
2017-02-16T04:03:07.194Z,2.84
2017-02-16T04:04:08.860Z,2.89
2017-02-16T04:05:08.328Z,2.76
2017-02-16T04:06:08.013Z,2.88
2017-02-16T04:07:07.522Z,2.77
2017-02-16T04:08:08.470Z,2.81
2017-02-16T04:09:08.061Z,2.84
2017-02-16T04:10:08.509Z,2.84
2017-02-16T04:11:08.474Z,2.82
2017-02-16T04:12:08.916Z,2.86
2017-02-16T04:13:07.401Z,2.92
2017-02-16T04:14:08.824Z,2.86
2017-02-16T04:15:08.325Z,2.88
2017-02-16T04:16:08.785Z,2.82
2017-02-16T04:17:08.361Z,2.86
2017-02-16T04:18:07.829Z,2.85
2017-02-16T04:19:07.309Z,2.85
2017-02-16T04:20:08.778Z,2.79
2017-02-16T04:21:07.244Z,2.78
2017-02-16T04:22:08.687Z,2.81
2017-02-16T04:23:08.143Z,2.82
2017-02-16T04:24:07.657Z,2.74
2017-02-16T04:25:08.099Z,2.85
2017-02-16T04:26:07.589Z,2.77
2017-02-16T04:27:07.136Z,2.84
2017-02-16T04:28:07.842Z,2.79
2017-02-16T04:29:08.291Z,2.74
2017-02-16T04:30:07.949Z,2.63
2017-02-16T04:31:08.366Z,2.60
2017-02-16T04:32:08.009Z,2.72
2017-02-16T04:33:08.568Z,2.70
2017-02-16T04:34:08.039Z,2.71
2017-02-16T04:35:08.478Z,2.77
2017-02-16T04:36:07.987Z,2.74
2017-02-16T04:37:07.744Z,2.63
2017-02-16T04:38:07.612Z,2.81
2017-02-16T04:39:07.156Z,2.73
2017-02-16T04:40:07.666Z,2.74
2017-02-16T04:41:07.393Z,2.63
2017-02-16T04:42:08.029Z,2.71
2017-02-16T04:43:07.580Z,2.70
2017-02-16T04:44:08.037Z,2.63
2017-02-16T04:45:08.510Z,2.68
2017-02-16T04:46:08.007Z,2.62
2017-02-16T04:47:07.497Z,2.56
2017-02-16T04:48:08.025Z,2.61
2017-02-16T04:49:08.437Z,2.59
2017-02-16T04:50:07.909Z,2.59
2017-02-16T04:51:07.411Z,2.53
2017-02-16T04:52:08.011Z,2.71
2017-02-16T04:53:07.448Z,2.57
2017-02-16T04:54:07.967Z,2.73
2017-02-16T04:55:07.500Z,2.53
2017-02-16T04:56:08.077Z,2.40
2017-02-16T04:57:07.620Z,2.48
2017-02-16T04:58:08.057Z,2.59
2017-02-16T04:59:07.618Z,2.59
2017-02-16T05:00:07.331Z,2.56
2017-02-16T05:01:07.879Z,2.54
2017-02-16T05:02:07.517Z,2.51
2017-02-16T05:03:08.023Z,2.55
2017-02-16T05:04:07.626Z,2.54
2017-02-16T05:05:08.244Z,2.53
2017-02-16T05:06:07.745Z,2.57
2017-02-16T05:07:07.285Z,2.62
2017-02-16T05:08:07.796Z,2.51
2017-02-16T05:09:07.313Z,2.56
2017-02-16T05:10:07.841Z,2.54
2017-02-16T05:11:07.539Z,2.51
2017-02-16T05:12:08.607Z,2.48
2017-02-16T05:13:08.013Z,2.45
2017-02-16T05:14:07.597Z,2.51
2017-02-16T05:15:07.049Z,2.49
2017-02-16T05:16:07.592Z,2.44
2017-02-16T05:17:08.133Z,2.47
2017-02-16T05:18:07.760Z,2.44
2017-02-16T05:19:07.335Z,2.47
2017-02-16T05:20:08.773Z,2.38
2017-02-16T05:21:08.312Z,2.40
2017-02-16T05:22:08.778Z,2.56
2017-02-16T05:23:08.544Z,2.40
2017-02-16T05:24:08.148Z,2.46
2017-02-16T05:25:11.040Z,2.44
2017-02-16T05:26:08.948Z,2.46
2017-02-16T05:27:07.428Z,2.43
2017-02-16T05:28:08.860Z,2.43
2017-02-16T05:29:08.350Z,2.34
2017-02-16T05:30:07.985Z,2.46
2017-02-16T05:31:08.441Z,2.54
2017-02-16T05:32:08.414Z,2.52
2017-02-16T05:33:08.289Z,2.47
2017-02-16T05:34:08.884Z,2.32
2017-02-16T05:35:08.436Z,2.40
2017-02-16T05:36:09.018Z,2.32
2017-02-16T05:37:08.748Z,2.34
2017-02-16T05:38:07.221Z,2.30
2017-02-16T05:39:07.721Z,2.34
2017-02-16T05:40:08.221Z,2.45
2017-02-16T05:41:07.703Z,2.52
2017-02-16T05:42:08.152Z,2.39
2017-02-16T05:43:07.870Z,2.23
2017-02-16T05:44:07.768Z,2.27
2017-02-16T05:45:07.390Z,2.24
2017-02-16T05:46:07.869Z,2.41
2017-02-16T05:47:07.348Z,2.42
2017-02-16T05:48:07.871Z,2.34
2017-02-16T05:49:07.405Z,2.35
2017-02-16T05:50:07.887Z,2.44
2017-02-16T05:51:07.407Z,2.36
2017-02-16T05:52:07.936Z,2.32
2017-02-16T05:53:07.440Z,2.26
2017-02-16T05:54:08.909Z,2.34
2017-02-16T05:55:08.356Z,2.27
2017-02-16T05:56:08.898Z,2.32
2017-02-16T05:57:07.409Z,2.33
2017-02-16T05:58:07.881Z,2.31
2017-02-16T05:59:07.536Z,2.31
2017-02-16T06:00:09.027Z,2.32
2017-02-16T06:01:07.495Z,2.30
2017-02-16T06:02:08.946Z,2.22
2017-02-16T06:03:08.441Z,2.17
2017-02-16T06:04:08.900Z,2.19
2017-02-16T06:05:07.682Z,2.12
2017-02-16T06:06:07.299Z,2.16
2017-02-16T06:07:08.170Z,2.22
2017-02-16T06:08:07.763Z,2.27
2017-02-16T06:09:08.211Z,2.28
2017-02-16T06:10:07.879Z,2.33
2017-02-16T06:11:07.476Z,2.25
2017-02-16T06:12:08.939Z,2.33
2017-02-16T06:13:07.465Z,2.27
2017-02-16T06:14:07.960Z,2.26
2017-02-16T06:15:07.452Z,2.36
2017-02-16T06:16:08.917Z,2.18
2017-02-16T06:17:08.806Z,2.23
2017-02-16T06:18:08.295Z,2.33
2017-02-16T06:19:08.748Z,2.36
2017-02-16T06:20:08.211Z,2.22
2017-02-16T06:21:08.760Z,2.19
2017-02-16T06:22:07.352Z,2.21
2017-02-16T06:23:07.872Z,2.18
2017-02-16T06:24:07.452Z,2.09
2017-02-16T06:25:08.009Z,2.09
2017-02-16T06:26:08.466Z,2.21
2017-02-16T06:27:07.982Z,2.15
2017-02-16T06:28:08.649Z,2.17
2017-02-16T06:29:08.107Z,2.37
2017-02-16T06:30:07.559Z,2.29
2017-02-16T06:31:08.153Z,2.33
2017-02-16T06:32:08.632Z,2.35
2017-02-16T06:33:07.250Z,2.33
2017-02-16T06:34:08.670Z,2.31
2017-02-16T06:35:08.118Z,2.43
2017-02-16T06:36:07.990Z,2.50
2017-02-16T06:37:08.438Z,2.34
2017-02-16T06:38:08.944Z,2.36
2017-02-16T06:39:08.454Z,2.36
2017-02-16T06:40:08.102Z,2.28
2017-02-16T06:41:07.615Z,2.34
2017-02-16T06:42:07.082Z,2.40
2017-02-16T06:43:08.538Z,2.28
2017-02-16T06:44:08.964Z,2.40
2017-02-16T06:45:08.451Z,2.41
2017-02-16T06:46:08.881Z,2.38
2017-02-16T06:47:08.295Z,2.51
2017-02-16T06:48:08.792Z,2.52
2017-02-16T06:49:17.303Z,2.39
2017-02-16T06:50:08.957Z,2.54
2017-02-16T06:51:08.430Z,2.45
2017-02-16T06:52:07.936Z,2.44
2017-02-16T06:53:08.388Z,2.45
2017-02-16T06:54:08.821Z,2.45
2017-02-16T06:55:08.312Z,2.45
2017-02-16T06:56:08.767Z,2.42
2017-02-16T06:57:08.229Z,2.49
2017-02-16T06:58:08.752Z,2.43
2017-02-16T06:59:08.220Z,2.48
2017-02-16T07:00:08.688Z,2.59
2017-02-16T07:01:08.132Z,2.54
2017-02-16T07:02:08.606Z,2.60
2017-02-16T07:03:08.051Z,2.64
2017-02-16T07:04:08.568Z,2.55
2017-02-16T07:05:09.040Z,2.55
2017-02-16T07:06:08.503Z,2.59
2017-02-16T07:07:08.962Z,2.61
2017-02-16T07:08:08.598Z,2.64
2017-02-16T07:09:08.333Z,2.77
2017-02-16T07:10:08.817Z,2.73
2017-02-16T07:11:08.246Z,2.74
2017-02-16T07:12:08.682Z,2.74
2017-02-16T07:13:08.131Z,2.71
2017-02-16T07:14:08.588Z,2.71
2017-02-16T07:15:08.048Z,2.75
2017-02-16T07:16:08.577Z,2.74
2017-02-16T07:17:07.258Z,2.74
2017-02-16T07:18:08.701Z,2.75
2017-02-16T07:19:08.174Z,2.74
2017-02-16T07:20:08.658Z,2.77
2017-02-16T07:21:07.266Z,2.81
2017-02-16T07:22:07.956Z,2.78
2017-02-16T07:23:07.496Z,2.84
2017-02-16T07:24:08.988Z,2.96
2017-02-16T07:25:07.497Z,2.96
2017-02-16T07:26:07.992Z,2.99
2017-02-16T07:27:07.456Z,3.00
2017-02-16T07:28:08.915Z,3.04
2017-02-16T07:29:07.613Z,3.01
2017-02-16T07:30:07.163Z,3.06
2017-02-16T07:31:07.735Z,3.07
2017-02-16T07:32:08.260Z,3.05
2017-02-16T07:33:17.730Z,3.15
2017-02-16T07:34:07.257Z,3.11
2017-02-16T07:35:08.751Z,3.10
2017-02-16T07:36:07.315Z,3.02
2017-02-16T07:37:08.824Z,3.00
2017-02-16T07:38:07.277Z,3.12
2017-02-16T07:39:08.619Z,3.18
2017-02-16T07:40:07.364Z,3.26
2017-02-16T07:41:08.870Z,3.36
2017-02-16T07:42:07.545Z,3.49
2017-02-16T07:43:09.015Z,3.49
2017-02-16T07:44:07.566Z,3.60
2017-02-16T07:45:07.143Z,3.71
2017-02-16T07:46:07.723Z,3.65
2017-02-16T07:47:07.465Z,3.75
2017-02-16T07:48:08.896Z,3.69
2017-02-16T07:49:07.548Z,3.73
2017-02-16T07:50:08.990Z,3.79
2017-02-16T07:51:07.520Z,3.72
2017-02-16T07:52:08.065Z,3.82
2017-02-16T07:53:08.529Z,3.90
2017-02-16T07:54:08.992Z,3.96
2017-02-16T07:55:07.587Z,3.88
2017-02-16T07:56:08.110Z,4.00
2017-02-16T07:57:08.577Z,4.00
2017-02-16T07:58:08.042Z,4.11
2017-02-16T07:59:07.538Z,4.03
2017-02-16T08:01:07.255Z,4.21
2017-02-16T08:02:07.891Z,4.17
2017-02-16T08:03:17.360Z,4.29
2017-02-16T08:04:08.805Z,4.31
2017-02-16T08:05:07.337Z,4.34
2017-02-16T08:06:07.894Z,4.40
2017-02-16T08:07:08.384Z,4.40
2017-02-16T08:08:08.837Z,4.55
2017-02-16T08:09:08.298Z,4.55
2017-02-16T08:10:08.838Z,4.57
2017-02-16T08:11:07.335Z,4.59
2017-02-16T08:12:08.795Z,4.79
2017-02-16T08:13:08.255Z,4.80
2017-02-16T08:14:08.097Z,4.72
2017-02-16T08:15:08.544Z,4.75
2017-02-16T08:16:08.475Z,4.90
2017-02-16T08:17:08.204Z,4.89
2017-02-16T08:18:08.700Z,4.83
2017-02-16T08:19:08.164Z,4.89
2017-02-16T08:20:07.756Z,4.94
2017-02-16T08:21:08.247Z,4.88
2017-02-16T08:22:08.748Z,5.00
2017-02-16T08:23:08.320Z,5.04
2017-02-16T08:24:09.241Z,5.01
2017-02-16T08:25:07.892Z,5.06
2017-02-16T08:26:08.322Z,5.11
2017-02-16T08:27:07.895Z,5.20
2017-02-16T08:28:07.487Z,5.29
2017-02-16T08:29:08.050Z,5.33
2017-02-16T08:30:07.950Z,5.28
2017-02-16T08:31:07.485Z,5.35
2017-02-16T08:32:08.218Z,5.39
2017-02-16T08:33:08.669Z,5.49
2017-02-16T08:34:07.153Z,5.57
2017-02-16T08:35:07.974Z,5.56
2017-02-16T08:36:07.621Z,5.54
2017-02-16T08:37:07.388Z,5.60
2017-02-16T08:38:08.221Z,5.60
2017-02-16T08:39:08.661Z,5.68
2017-02-16T08:40:08.127Z,5.70
2017-02-16T08:41:07.621Z,5.71
2017-02-16T08:42:08.036Z,5.81
2017-02-16T08:43:08.550Z,5.86
2017-02-16T08:44:08.263Z,5.91
2017-02-16T08:45:07.855Z,5.86
2017-02-16T08:46:08.267Z,5.93
2017-02-16T08:47:07.840Z,6.01
2017-02-16T08:48:08.254Z,5.93
2017-02-16T08:49:08.707Z,5.99
2017-02-16T08:50:08.228Z,5.99
2017-02-16T08:51:08.717Z,6.06
2017-02-16T08:52:07.451Z,6.09
2017-02-16T08:53:08.903Z,6.09
2017-02-16T08:54:07.466Z,6.22
2017-02-16T08:55:08.141Z,6.21
2017-02-16T08:56:07.661Z,6.18
2017-02-16T08:57:08.125Z,6.20
2017-02-16T08:58:08.562Z,6.21
2017-02-16T08:59:08.060Z,6.28
2017-02-16T09:00:07.660Z,6.27
2017-02-16T09:01:08.182Z,6.36
2017-02-16T09:02:08.637Z,6.45
2017-02-16T09:03:17.097Z,6.41
2017-02-16T09:04:07.603Z,6.40
2017-02-16T09:05:08.053Z,6.43
2017-02-16T09:06:07.567Z,6.46
2017-02-16T09:07:07.595Z,6.48
2017-02-16T09:08:07.074Z,6.61
2017-02-16T09:09:08.584Z,6.55
2017-02-16T09:10:08.047Z,6.56
2017-02-16T09:11:08.564Z,6.60
2017-02-16T09:12:09.027Z,6.61
2017-02-16T09:13:07.623Z,6.65
2017-02-16T09:14:08.066Z,6.66
2017-02-16T09:15:08.520Z,6.67
2017-02-16T09:16:08.077Z,6.71
2017-02-16T09:17:08.594Z,6.75
2017-02-16T09:18:07.200Z,6.77
2017-02-16T09:19:08.696Z,6.77
2017-02-16T09:20:07.269Z,6.75
2017-02-16T09:21:08.738Z,6.81
2017-02-16T09:22:08.228Z,6.84
2017-02-16T09:23:08.701Z,6.85
2017-02-16T09:24:08.160Z,6.85
2017-02-16T09:25:07.771Z,6.83
2017-02-16T09:26:08.260Z,6.86
2017-02-16T09:27:08.045Z,6.88
2017-02-16T09:28:07.636Z,6.87
2017-02-16T09:29:07.155Z,6.87
2017-02-16T09:30:08.664Z,6.89
2017-02-16T09:31:08.124Z,6.89
2017-02-16T09:32:08.608Z,6.96
2017-02-16T09:33:08.054Z,7.00
2017-02-16T09:34:08.554Z,7.02
2017-02-16T09:35:09.084Z,7.00
2017-02-16T09:36:07.583Z,6.99
2017-02-16T09:37:07.073Z,7.16
2017-02-16T09:38:08.545Z,7.16
2017-02-16T09:39:09.057Z,7.19
2017-02-16T09:40:08.530Z,7.16
2017-02-16T09:41:08.089Z,7.24
2017-02-16T09:42:08.595Z,7.26
2017-02-16T09:43:07.124Z,7.20
2017-02-16T09:44:07.528Z,7.18
2017-02-16T09:45:08.037Z,7.27
2017-02-16T09:46:07.545Z,7.34
2017-02-16T09:47:08.056Z,7.30
2017-02-16T09:48:07.633Z,7.26
2017-02-16T09:49:07.156Z,7.34
2017-02-16T09:50:07.707Z,7.36
2017-02-16T09:51:07.379Z,7.30
2017-02-16T09:52:08.905Z,7.30
2017-02-16T09:53:08.328Z,7.31
2017-02-16T09:54:08.790Z,7.37
2017-02-16T09:55:07.319Z,7.38
2017-02-16T09:56:08.786Z,7.46
2017-02-16T09:57:08.264Z,7.44
2017-02-16T09:58:08.718Z,7.47
2017-02-16T09:59:08.416Z,7.41
2017-02-16T10:00:08.885Z,7.35
2017-02-16T10:01:08.827Z,7.45
2017-02-16T10:02:08.438Z,7.42
2017-02-16T10:03:08.035Z,7.40
2017-02-16T10:04:07.912Z,7.39
2017-02-16T10:05:07.898Z,7.39
2017-02-16T10:06:08.351Z,7.52
2017-02-16T10:07:07.958Z,7.54
2017-02-16T10:08:08.483Z,7.63
2017-02-16T10:09:08.957Z,7.67
2017-02-16T10:10:08.458Z,7.65
2017-02-16T10:11:08.979Z,7.69
2017-02-16T10:12:07.545Z,7.67
2017-02-16T10:13:08.999Z,7.63
2017-02-16T10:14:07.534Z,7.75
2017-02-16T10:15:08.999Z,7.81
2017-02-16T10:16:07.597Z,7.74
2017-02-16T10:17:08.165Z,7.71
2017-02-16T10:18:07.770Z,7.62
2017-02-16T10:19:07.436Z,7.70
2017-02-16T10:20:08.931Z,7.75
2017-02-16T10:21:07.545Z,7.72
2017-02-16T10:22:08.365Z,7.74
2017-02-16T10:23:07.771Z,7.77
2017-02-16T10:24:08.072Z,7.72
2017-02-16T10:25:08.088Z,7.79
2017-02-16T10:26:07.889Z,7.82
2017-02-16T10:27:07.418Z,7.82
2017-02-16T10:28:07.959Z,7.85
2017-02-16T10:29:07.544Z,8.00
2017-02-16T10:30:08.164Z,7.95
2017-02-16T10:31:07.722Z,7.91
2017-02-16T10:32:07.362Z,7.93
2017-02-16T10:33:08.226Z,7.86
2017-02-16T10:34:07.901Z,7.90
2017-02-16T10:35:07.432Z,7.96
2017-02-16T10:36:08.079Z,8.06
2017-02-16T10:37:07.600Z,8.02
2017-02-16T10:38:07.285Z,8.09
2017-02-16T10:39:07.905Z,8.09
2017-02-16T10:40:07.559Z,8.09
2017-02-16T10:41:07.319Z,8.05
2017-02-16T10:42:07.863Z,8.02
2017-02-16T10:43:07.477Z,8.04
2017-02-16T10:44:08.392Z,8.14
2017-02-16T10:45:17.650Z,8.17
2017-02-16T10:46:07.143Z,8.17
2017-02-16T10:47:07.707Z,8.12
2017-02-16T10:48:07.266Z,8.11
2017-02-16T10:49:07.792Z,8.36
2017-02-16T10:50:07.305Z,8.26
2017-02-16T10:51:08.162Z,8.21
2017-02-16T10:52:07.736Z,8.15
2017-02-16T10:53:07.343Z,8.36
2017-02-16T10:55:17.075Z,8.46
2017-02-16T10:56:07.599Z,8.58
2017-02-16T10:57:07.149Z,8.44
2017-02-16T10:58:07.759Z,8.35
2017-02-16T10:59:07.323Z,8.29
2017-02-16T11:00:07.853Z,8.26
2017-02-16T11:01:07.330Z,8.20
2017-02-16T11:02:08.140Z,8.20
2017-02-16T11:03:08.636Z,8.27
2017-02-16T11:04:07.349Z,8.30
2017-02-16T11:05:07.931Z,8.32
2017-02-16T11:06:07.486Z,8.34
2017-02-16T11:07:08.000Z,8.26
2017-02-16T11:08:07.561Z,8.39
2017-02-16T11:09:08.164Z,8.39
2017-02-16T11:10:07.779Z,8.61
2017-02-16T11:11:07.246Z,8.70
2017-02-16T11:12:07.862Z,8.64
2017-02-16T11:13:07.434Z,8.60
2017-02-16T11:14:08.013Z,8.73
2017-02-16T11:15:07.489Z,8.58
2017-02-16T11:16:07.530Z,8.50
2017-02-16T11:17:08.202Z,8.49
2017-02-16T11:18:07.765Z,8.51
2017-02-16T11:19:07.411Z,8.55
2017-02-16T11:20:07.965Z,8.64
2017-02-16T11:21:07.543Z,8.69
2017-02-16T11:22:08.090Z,8.71
2017-02-16T11:23:07.707Z,8.77
2017-02-16T11:24:07.246Z,8.82
2017-02-16T11:25:07.932Z,8.78
2017-02-16T11:26:07.596Z,8.88
2017-02-16T11:27:07.099Z,9.02
2017-02-16T11:28:07.624Z,9.07
2017-02-16T11:29:07.190Z,9.15
2017-02-16T11:30:07.816Z,8.98
2017-02-16T11:31:07.371Z,8.90
2017-02-16T11:32:08.061Z,8.80
2017-02-16T11:33:07.669Z,8.78
2017-02-16T11:34:07.242Z,8.90
2017-02-16T11:35:08.152Z,8.79
2017-02-16T11:36:07.749Z,8.97
2017-02-16T11:37:07.257Z,8.89
2017-02-16T11:38:07.850Z,8.86
2017-02-16T11:39:07.352Z,9.08
2017-02-16T11:40:07.927Z,9.05
2017-02-16T11:41:07.553Z,9.34
2017-02-16T11:42:08.107Z,9.20
2017-02-16T11:43:07.643Z,9.10
2017-02-16T11:44:07.325Z,9.00
2017-02-16T11:45:08.169Z,9.04
2017-02-16T11:46:07.722Z,9.01
2017-02-16T11:47:07.219Z,8.96
2017-02-16T11:48:07.901Z,9.05
2017-02-16T11:49:07.361Z,8.96
2017-02-16T11:50:07.894Z,8.96
2017-02-16T11:51:07.481Z,9.07
2017-02-16T11:52:08.181Z,9.21
2017-02-16T11:53:07.706Z,9.15
2017-02-16T11:54:07.245Z,9.14
2017-02-16T11:55:07.900Z,9.11
2017-02-16T11:56:07.464Z,9.28
2017-02-16T11:57:08.089Z,9.29
2017-02-16T11:58:07.639Z,9.41
2017-02-16T11:59:07.201Z,9.42
2017-02-16T12:00:07.826Z,9.42
2017-02-16T12:01:07.424Z,9.35
2017-02-16T12:02:08.052Z,9.45
2017-02-16T12:03:17.510Z,9.51
2017-02-16T12:04:08.070Z,9.37
2017-02-16T12:05:07.779Z,9.33
2017-02-16T12:06:07.361Z,9.62
2017-02-16T12:07:07.441Z,9.48
2017-02-16T12:08:07.963Z,9.51
2017-02-16T12:09:07.423Z,9.39
2017-02-16T12:10:08.044Z,9.45
2017-02-16T12:11:07.679Z,9.42
2017-02-16T12:12:07.201Z,9.42
2017-02-16T12:13:07.771Z,9.33
2017-02-16T12:14:07.307Z,9.33
2017-02-16T12:15:07.842Z,9.40
2017-02-16T12:16:07.700Z,9.49
2017-02-16T12:17:07.413Z,9.51
2017-02-16T12:18:08.242Z,9.49
2017-02-16T12:19:07.908Z,9.57
2017-02-16T12:20:07.484Z,9.56
2017-02-16T12:21:08.075Z,9.68
2017-02-16T12:22:07.764Z,9.67
2017-02-16T12:23:07.340Z,9.63
2017-02-16T12:24:07.902Z,9.60
2017-02-16T12:25:07.712Z,9.57
2017-02-16T12:26:07.318Z,9.59
2017-02-16T12:27:07.946Z,9.61
2017-02-16T12:28:07.609Z,9.54
2017-02-16T12:29:07.087Z,9.57
2017-02-16T12:30:07.609Z,9.60
2017-02-16T12:31:07.134Z,9.86
2017-02-16T12:32:07.822Z,10.06
2017-02-16T12:33:08.292Z,9.99
2017-02-16T12:34:07.930Z,10.10
2017-02-16T12:35:07.485Z,10.30
2017-02-16T12:36:08.341Z,10.13
2017-02-16T12:37:08.254Z,10.08
2017-02-16T12:38:07.867Z,10.10
2017-02-16T12:39:07.423Z,9.96
2017-02-16T12:40:07.962Z,9.91
2017-02-16T12:41:07.475Z,9.95
2017-02-16T12:42:08.068Z,10.09
2017-02-16T12:43:07.640Z,10.02
2017-02-16T12:44:07.216Z,9.99
2017-02-16T12:45:08.081Z,10.02
2017-02-16T12:46:07.715Z,10.45
2017-02-16T12:47:07.229Z,10.41
2017-02-16T12:48:07.769Z,10.30
2017-02-16T12:49:07.313Z,10.35
2017-02-16T12:50:07.897Z,10.15
2017-02-16T12:51:07.486Z,10.11
2017-02-16T12:52:08.015Z,10.18
2017-02-16T12:53:07.469Z,10.22
2017-02-16T12:54:08.024Z,10.06
2017-02-16T12:55:07.646Z,9.95
2017-02-16T12:56:07.139Z,9.93
2017-02-16T12:57:07.604Z,9.99
2017-02-16T12:58:07.247Z,10.13
2017-02-16T12:59:07.860Z,10.24
2017-02-16T13:00:07.427Z,10.31
2017-02-16T13:01:08.046Z,10.20
2017-02-16T13:02:07.706Z,10.34
2017-02-16T13:03:07.282Z,10.16
2017-02-16T13:04:07.881Z,10.09
2017-02-16T13:05:07.443Z,10.33
2017-02-16T13:06:08.032Z,10.44
2017-02-16T13:07:07.548Z,10.50
2017-02-16T13:08:08.113Z,10.32
2017-02-16T13:09:07.855Z,10.25
2017-02-16T13:10:07.646Z,10.19
2017-02-16T13:11:07.194Z,10.18
2017-02-16T13:12:07.738Z,10.20
2017-02-16T13:13:07.234Z,10.22
2017-02-16T13:14:07.668Z,10.26
2017-02-16T13:15:07.226Z,10.27
2017-02-16T13:16:07.831Z,10.61
2017-02-16T13:17:07.530Z,10.82
2017-02-16T13:18:08.155Z,10.92
2017-02-16T13:19:07.891Z,10.77
2017-02-16T13:20:07.602Z,10.99